createdAt,value
2018-09-03T00:02:07.681Z,100429.19
2018-09-03T00:07:11.254Z,100427.09
2018-09-03T00:12:14.874Z,100419.12
2018-09-03T00:17:18.589Z,100414.45
2018-09-03T00:22:22.174Z,100411.23
2018-09-03T00:27:25.904Z,100409.23
2018-09-03T00:32:34.757Z,100400.73
2018-09-03T00:37:43.462Z,100403.80
2018-09-03T00:42:52.302Z,100408.05
2018-09-03T00:47:55.966Z,100403.14
2018-09-03T00:52:59.618Z,100405.84
2018-09-03T00:58:03.266Z,100415.50
2018-09-03T01:03:06.965Z,100422.85
2018-09-03T01:08:10.648Z,100412.88
2018-09-03T01:13:14.234Z,100407.48
2018-09-03T01:18:17.854Z,100428.58
2018-09-03T01:23:21.518Z,100426.86
2018-09-03T01:28:25.328Z,100430.16
2018-09-03T01:33:28.962Z,100421.91
2018-09-03T01:38:32.655Z,100426.56
2018-09-03T01:43:36.241Z,100424.32
2018-09-03T01:48:39.970Z,100428.48
2018-09-03T01:53:43.604Z,100431.02
2018-09-03T01:58:47.239Z,100437.19
2018-09-03T02:03:52.090Z,100413.97
2018-09-03T02:08:55.692Z,100404.77
2018-09-03T02:13:59.298Z,100397.05
2018-09-03T02:19:02.957Z,100398.03
2018-09-03T02:24:06.772Z,100393.33
2018-09-03T02:29:10.365Z,100384.12
2018-09-03T02:34:13.978Z,100386.58
2018-09-03T02:39:17.578Z,100390.38
2018-09-03T02:44:21.283Z,100377.70
2018-09-03T02:49:24.945Z,100368.27
2018-09-03T02:54:28.659Z,100333.17
2018-09-03T02:59:32.231Z,100342.28
2018-09-03T03:04:35.849Z,100334.03
2018-09-03T03:09:39.460Z,100331.58
2018-09-03T03:14:43.160Z,100316.98
2018-09-03T03:19:46.914Z,100310.73
2018-09-03T03:24:50.606Z,100315.27
2018-09-03T03:29:54.254Z,100313.16
2018-09-03T03:34:57.914Z,100316.70
2018-09-03T03:40:01.732Z,100316.34
2018-09-03T03:45:05.470Z,100308.37
2018-09-03T03:50:09.363Z,100313.97
2018-09-03T03:55:13.089Z,100322.98
2018-09-03T04:00:16.725Z,100333.08
2018-09-03T04:05:20.318Z,100316.28
2018-09-03T04:10:23.936Z,100316.85
2018-09-03T04:15:27.704Z,100321.55
2018-09-03T04:20:31.398Z,100319.12
2018-09-03T04:25:35.061Z,100336.84
2018-09-03T04:30:38.673Z,100338.20
2018-09-03T04:35:42.225Z,100340.08
2018-09-03T04:40:45.929Z,100336.84
2018-09-03T04:45:49.666Z,100328.08
2018-09-03T04:50:53.328Z,100332.97
2018-09-03T04:55:56.898Z,100333.95
2018-09-03T05:01:00.575Z,100334.53
2018-09-03T05:06:04.261Z,100321.38
2018-09-03T05:11:07.898Z,100323.03
2018-09-03T05:16:11.561Z,100312.34
2018-09-03T05:21:15.323Z,100311.94
2018-09-03T05:26:18.927Z,100313.42
2018-09-03T05:31:22.595Z,100303.00
2018-09-03T05:36:26.245Z,100304.11
2018-09-03T05:41:29.925Z,100312.19
2018-09-03T05:46:33.616Z,100312.25
2018-09-03T05:51:37.258Z,100316.17
2018-09-03T05:56:40.892Z,100311.33
2018-09-03T06:01:44.686Z,100310.11
2018-09-03T06:06:48.288Z,100323.66
2018-09-03T06:11:51.926Z,100328.09
2018-09-03T06:16:55.524Z,100306.75
2018-09-03T06:21:59.277Z,100307.66
2018-09-03T06:27:02.915Z,100302.33
2018-09-03T06:32:06.653Z,100316.41
2018-09-03T06:37:10.306Z,100320.81
2018-09-03T06:42:13.970Z,100315.31
2018-09-03T06:47:17.612Z,100306.55
2018-09-03T06:52:21.264Z,100310.95
2018-09-03T06:57:25.056Z,100315.98
2018-09-03T07:02:28.733Z,100321.42
2018-09-03T07:07:32.312Z,100334.62
2018-09-03T07:12:35.967Z,100331.03
2018-09-03T07:17:39.994Z,100332.34
2018-09-03T07:22:43.689Z,100342.50
2018-09-03T07:27:47.415Z,100335.89
2018-09-03T07:32:51.022Z,100334.92
2018-09-03T07:37:54.651Z,100333.50
2018-09-03T07:42:58.290Z,100339.73
2018-09-03T07:48:01.898Z,100341.98
2018-09-03T07:53:05.537Z,100337.39
2018-09-03T07:58:09.592Z,100334.25
2018-09-03T08:03:13.198Z,100334.73
2018-09-03T08:08:16.831Z,100328.27
2018-09-03T08:13:25.702Z,100334.05
2018-09-03T08:18:29.356Z,100326.54
2018-09-03T08:23:32.942Z,100334.55
2018-09-03T08:28:36.621Z,100321.09
2018-09-03T08:33:40.257Z,100316.53
2018-09-03T08:38:43.886Z,100306.70
2018-09-03T08:43:47.852Z,100306.50
2018-09-03T08:48:51.463Z,100315.37
2018-09-03T08:53:55.125Z,100312.88
2018-09-03T08:58:58.787Z,100320.20
2018-09-03T09:04:02.503Z,100325.16
2018-09-03T09:09:08.217Z,100325.91
2018-09-03T09:14:11.828Z,100321.61
2018-09-03T09:19:15.501Z,100325.53
2018-09-03T09:24:19.217Z,100327.13
2018-09-03T09:29:22.787Z,100324.81
2018-09-03T09:34:26.426Z,100317.28
2018-09-03T09:39:30.061Z,100308.52
2018-09-03T09:44:33.671Z,100297.69
2018-09-03T09:49:37.297Z,100301.59
2018-09-03T09:54:40.939Z,100294.20
2018-09-03T09:59:44.607Z,100300.76
2018-09-03T10:04:48.196Z,100297.55
2018-09-03T10:09:51.847Z,100287.63
2018-09-03T10:14:55.467Z,100280.91
2018-09-03T10:19:59.524Z,100275.94
2018-09-03T10:25:03.297Z,100272.80
2018-09-03T10:30:08.113Z,100274.39
2018-09-03T10:35:11.713Z,100267.53
2018-09-03T10:40:15.302Z,100269.91
2018-09-03T10:45:18.889Z,100261.02
2018-09-03T10:50:22.543Z,100250.16
2018-09-03T10:55:26.198Z,100248.13
2018-09-03T11:00:29.795Z,100247.14
2018-09-03T11:05:33.389Z,100238.98
2018-09-03T11:10:36.973Z,100230.41
2018-09-03T11:15:40.605Z,100228.31
2018-09-03T11:20:44.226Z,100229.55
2018-09-03T11:25:47.814Z,100224.92
2018-09-03T11:30:51.466Z,100219.94
2018-09-03T11:35:55.067Z,100212.46
2018-09-03T11:46:01.413Z,100192.41
2018-09-03T11:51:05.018Z,100201.50
2018-09-03T11:56:08.710Z,100207.72
2018-09-03T12:01:12.394Z,100219.55
2018-09-03T12:06:16.089Z,100215.05
2018-09-03T12:11:19.730Z,100217.99
2018-09-03T12:16:27.027Z,100215.58
2018-09-03T12:21:30.595Z,100219.13
2018-09-03T12:26:34.210Z,100213.13
2018-09-03T12:31:37.777Z,100211.77
2018-09-03T12:36:41.405Z,100209.56
2018-09-03T12:41:45.105Z,100211.16
2018-09-03T12:46:48.838Z,100216.55
2018-09-03T12:51:52.615Z,100217.17
2018-09-03T12:56:56.197Z,100221.00
2018-09-03T13:01:59.857Z,100219.16
2018-09-03T13:07:03.450Z,100209.97
2018-09-03T13:12:07.075Z,100205.22
2018-09-03T13:17:10.659Z,100208.84
2018-09-03T13:22:14.221Z,100209.75
2018-09-03T13:27:17.855Z,100197.44
2018-09-03T13:32:28.066Z,100195.25
2018-09-03T13:37:31.658Z,100188.70
2018-09-03T13:42:35.330Z,100183.00
2018-09-03T13:47:38.928Z,100179.84
2018-09-03T13:52:42.669Z,100180.76
2018-09-03T13:57:46.358Z,100170.19
2018-09-03T14:02:49.998Z,100160.79
2018-09-03T14:07:53.682Z,100157.47
2018-09-03T14:13:00.135Z,100158.14
2018-09-03T14:18:03.874Z,100160.22
2018-09-03T14:23:07.595Z,100157.77
2018-09-03T14:28:11.224Z,100155.27
2018-09-03T14:33:14.803Z,100156.41
2018-09-03T14:38:18.472Z,100139.38
2018-09-03T14:43:22.156Z,100146.41
2018-09-03T14:48:25.762Z,100147.91
2018-09-03T14:53:29.381Z,100151.38
2018-09-03T14:58:32.967Z,100145.26
2018-09-03T15:03:36.617Z,100150.36
2018-09-03T15:08:40.283Z,100153.40
2018-09-03T15:13:43.918Z,100152.42
2018-09-03T15:18:47.600Z,100148.50
2018-09-03T15:23:51.231Z,100147.27
2018-09-03T15:28:55.216Z,100149.36
2018-09-03T15:33:58.887Z,100141.44
2018-09-03T15:39:02.527Z,100141.06
2018-09-03T15:44:06.375Z,100136.09
2018-09-03T15:49:10.079Z,100128.11
2018-09-03T15:54:13.839Z,100127.56
2018-09-03T15:59:17.387Z,100137.61
2018-09-03T16:04:21.042Z,100132.69
2018-09-03T16:09:24.736Z,100138.70
2018-09-03T16:14:28.478Z,100144.63
2018-09-03T16:19:32.216Z,100146.30
2018-09-03T16:24:36.215Z,100141.50
2018-09-03T16:29:39.854Z,100137.70
2018-09-03T16:34:43.493Z,100138.08
2018-09-03T16:39:47.198Z,100140.20
2018-09-03T16:44:50.901Z,100136.36
2018-09-03T16:49:55.140Z,100134.38
2018-09-03T16:54:58.887Z,100124.91
2018-09-03T17:00:04.234Z,100127.48
2018-09-03T17:05:08.795Z,100128.71
2018-09-03T17:10:12.516Z,100129.20
2018-09-03T17:15:17.397Z,100116.55
2018-09-03T17:20:21.259Z,100115.97
2018-09-03T17:25:25.046Z,100112.08
2018-09-03T17:30:28.739Z,100116.27
2018-09-03T17:35:33.707Z,100118.78
2018-09-03T17:40:38.659Z,100120.48
2018-09-03T17:45:43.632Z,100124.77
2018-09-03T17:50:48.055Z,100127.93
2018-09-03T17:55:52.793Z,100132.49
2018-09-03T18:00:57.660Z,100132.19
2018-09-03T18:06:01.476Z,100133.16
2018-09-03T18:11:06.215Z,100136.31
2018-09-03T18:16:09.966Z,100137.24
2018-09-03T18:21:13.869Z,100140.33
2018-09-03T18:26:18.793Z,100135.06
2018-09-03T18:31:22.473Z,100136.82
2018-09-03T18:36:27.223Z,100131.77
2018-09-03T18:41:30.909Z,100131.23
2018-09-03T18:46:35.145Z,100137.22
2018-09-03T18:51:39.247Z,100131.86
2018-09-03T18:56:43.758Z,100130.46
2018-09-03T19:01:47.640Z,100128.01
2018-09-03T19:06:51.262Z,100125.53
2018-09-03T19:11:55.155Z,100125.53
2018-09-03T19:17:00.112Z,100128.24
2018-09-03T19:22:04.346Z,100136.36
2018-09-03T19:27:10.033Z,100138.96
2018-09-03T19:32:14.822Z,100137.20
2018-09-03T19:37:18.619Z,100137.81
2018-09-03T19:42:22.291Z,100138.83
2018-09-03T19:47:26.241Z,100136.77
2018-09-03T19:52:29.962Z,100128.45
2018-09-03T19:57:33.725Z,100146.89
2018-09-03T20:02:37.317Z,100141.41
2018-09-03T20:07:41.066Z,100139.46
2018-09-03T20:12:44.771Z,100141.05
2018-09-03T20:17:48.460Z,100134.06
2018-09-03T20:22:52.222Z,100135.16
2018-09-03T20:27:56.034Z,100132.95
2018-09-03T20:32:59.654Z,100130.48
2018-09-03T20:38:03.322Z,100136.36
2018-09-03T20:43:07.051Z,100122.77
2018-09-03T20:48:10.689Z,100120.92
2018-09-03T20:53:14.367Z,100120.30
2018-09-03T20:58:18.646Z,100126.57
2018-09-03T21:03:22.370Z,100129.03
2018-09-03T21:08:26.055Z,100125.84
2018-09-03T21:13:29.668Z,100129.39
2018-09-03T21:18:33.342Z,100130.02
2018-09-03T21:23:36.921Z,100121.80
2018-09-03T21:28:40.613Z,100120.59
2018-09-03T21:33:44.214Z,100122.37
2018-09-03T21:38:47.942Z,100124.63
2018-09-03T21:43:51.848Z,100119.95
2018-09-03T21:48:55.628Z,100116.26
2018-09-03T21:53:59.395Z,100114.77
2018-09-03T21:59:03.725Z,100112.56
2018-09-03T22:04:07.397Z,100117.89
2018-09-03T22:09:11.040Z,100110.15
2018-09-03T22:14:14.986Z,100103.89
2018-09-03T22:19:19.423Z,100109.15
2018-09-03T22:24:23.463Z,100104.59
2018-09-03T22:29:27.138Z,100097.97
2018-09-03T22:34:30.746Z,100096.84
2018-09-03T22:39:34.378Z,100105.95
2018-09-03T22:44:38.031Z,100101.66
2018-09-03T22:49:41.644Z,100100.66
2018-09-03T22:54:45.270Z,100099.05
2018-09-03T22:59:48.865Z,100094.49
2018-09-03T23:04:52.703Z,100094.63
2018-09-03T23:09:56.329Z,100083.81
2018-09-03T23:15:00.882Z,100089.22
2018-09-03T23:20:05.352Z,100085.89
2018-09-03T23:25:09.048Z,100082.33
2018-09-03T23:30:12.714Z,100075.57
2018-09-03T23:35:16.402Z,100072.27
2018-09-03T23:40:20.012Z,100074.84
2018-09-03T23:45:23.644Z,100070.92
2018-09-03T23:50:27.901Z,100070.16
2018-09-03T23:55:31.537Z,100065.62
